x

North Equatorial One- 470 Nm East Of Martinique (41040) Wave Buoy

8:50am - Wed 28th Jan 2015 All times are UTC.

  • Sig Wave height 6.6ft
  • Swell Direction
  • Peak Period 8s
  • Average Period 6s
  • Wind
    20mph, 25mph gusts
  • Sea Temp 80°f
  • Air Temp 78°f
  • Sea Pressure 1015.3mb

More Historic Weather Station data

Upgrade to MSW Pro to gain access to the past 30 days of data for over 8000 Wavebouys and Weather Stations around the globe.

Join Pro

Comparision Forecast

View Surf forecast
   
Wed 01/28 8:50am 6.5ft 8s 6s 20 25 mph 1015.3mb 80f 78f
7:50am 7ft 8s 6s 20 25 mph 1015.1mb 80f 78f
6:50am 7ft 8s 6s 22 27 mph 1015.2mb 80f 78f
5:50am 6.5ft 7s 6s 20 22 mph 1015.7mb 80f 78f
4:50am 6.5ft 8s 6s 20 25 mph 1016.4mb 80f 78f
3:50am 6.5ft 7s 6s 20 25 mph 1017.2mb 80f 78f
2:50am 7ft 8s 6s 20 25 mph 1017.5mb 80f 79f
1:50am 6.5ft 7s 6s 22 27 mph 1017.6mb 80f 79f
12:50am 7ft 7s 6s 22 27 mph 1017.5mb 80f 79f
Tue 01/27 11:50pm 7.5ft 8s 6s 20 25 mph 1017mb 80f 79f
10:50pm 6.5ft 7s 6s 20 25 mph 1016.7mb 80f 79f
9:50pm 6ft 7s 6s 20 25 mph 1016mb 80f 79f
8:50pm 7ft 8s 6s 20 25 mph 1015.8mb 80f 79f
7:50pm 6ft 7s 6s 20 25 mph 1015.5mb 80f 79f
6:50pm 7ft 7s 6s 20 22 mph 1015.3mb 80f 78f
5:50pm 7ft 7s 6s 20 25 mph 1015.8mb 80f 78f
4:50pm 7ft 6s 6s 20 25 mph 1016.2mb 80f 78f
3:50pm 7ft 6s 6s 20 27 mph 1017.2mb 80f 78f
2:50pm 7ft 6s 6s 25 29 mph 1017.8mb 80f 77f
1:50pm 7ft 9s 6s 20 25 mph 1018mb 80f 79f
12:50pm 6.5ft 6s 6s 20 25 mph 1017.6mb 80f 79f
11:50am 6ft 6s 6s 20 27 mph 1016.9mb 80f 78f
10:50am 6.5ft 11s 6s 20 25 mph 1016.1mb 80f 78f
9:50am 6ft 12s 6s 20 25 mph 1015.8mb 80f 78f
8:50am 6.5ft 11s 6s 20 22 mph 1015.5mb 80f 78f
7:50am 6.5ft 10s 6s 20 22 mph 1015.3mb 80f 78f
6:50am 6ft 11s 6s 18 22 mph 1015.6mb 80f 78f
5:50am 6ft 11s 6s 18 22 mph 1016mb 80f 78f
4:50am 6ft 13s 6s 18 20 mph 1016.7mb 80f 78f
3:50am 6ft 10s 6s 18 20 mph 1017.1mb 80f 78f
2:50am 6ft 11s 6s 18 20 mph 1017.1mb 80f 78f
1:50am 6ft 10s 6s 18 22 mph 1017.3mb 80f 78f
12:50am 6ft 13s 6s 18 22 mph 1017.3mb 80f 78f
Mon 01/26 11:50pm 6ft 12s 6s 18 20 mph 1017.2mb 80f 78f
10:50pm 6ft 11s 6s 16 20 mph 1016.8mb 80f 78f
9:50pm 6.5ft 11s 6s 18 20 mph 1016.2mb 80f 78f
8:50pm 6ft 12s 6s 16 20 mph 1016mb 80f 79f
7:50pm 6ft 7s 6s 16 20 mph 1015.5mb 80f 79f
6:50pm 6ft 9s 6s 18 22 mph 1015.1mb 81f 78f
5:50pm 6ft 12s 6s 20 25 mph 1015.2mb 81f 78f
4:50pm 6ft 7s 6s 18 20 mph 1016mb 81f 78f
3:50pm 6ft 13s 6s 18 22 mph 1016.6mb 81f 79f
2:50pm 6ft 8s 6s 20 22 mph 1017.1mb 80f 79f
1:50pm 6.5ft 8s 6s 20 22 mph 1017.5mb 80f 79f
12:50pm 6.5ft 8s 6s 20 22 mph 1017.3mb 80f 79f
11:50am 6ft 8s 5s 20 25 mph 1016.6mb 80f 78f
10:50am 6ft 9s 6s 22 27 mph 1016mb 80f 78f
9:50am 6ft 8s 5s 20 25 mph 1015.6mb 80f 78f
8:50am 5ft 8s 5s 22 25 mph 1015.3mb 80f 78f
7:50am 5.5ft 7s 5s 16 20 mph 1015.5mb 80f 77f
6:50am 5ft 8s 6s 18 20 mph 1015.5mb 80f 78f
5:50am 5.5ft 9s 6s 18 22 mph 1015.7mb 80f 78f
4:50am 5.5ft 7s 5s 18 20 mph 1016.1mb 80f 78f
3:50am 5.5ft 7s 5s 18 22 mph 1016.4mb 80f 78f
2:50am 5.5ft 9s 6s 18 22 mph 1016.4mb 80f 78f
1:50am 5.5ft 9s 6s 16 18 mph 1016.6mb 80f 78f
12:50am 5.5ft 9s 6s 18 22 mph 1016.6mb 80f 78f
Sun 01/25 11:50pm 6ft 8s 6s 18 22 mph 1016.2mb 80f 79f
10:50pm 5.5ft 9s 6s 16 20 mph 1015.8mb 80f 79f
9:50pm 6ft 9s 6s 16 20 mph 1015.6mb 80f 79f
8:50pm 6ft 6s 6s 16 20 mph 1015.1mb 80f 79f
7:50pm 6ft 7s 5s 18 20 mph 1014.5mb 81f 79f
6:50pm 6ft 9s 6s 18 20 mph 1014.3mb 81f 79f
5:50pm 6ft 9s 5s 20 22 mph 1014.7mb 81f 79f
4:50pm 6ft 6s 5s 18 22 mph 1015.5mb 80f 79f
3:50pm 5ft 6s 5s 20 25 mph 1016.2mb 80f 79f
2:50pm 6ft 9s 6s 18 20 mph 1017mb 80f 79f
1:50pm 6ft 9s 5s 20 25 mph 1017.4mb 80f 79f
12:50pm 6ft 5s 5s 20 25 mph 1017.4mb 80f 79f
11:50am 6ft 10s 5s 22 25 mph 1016.5mb 80f 79f
10:50am 5.5ft 9s 6s 18 22 mph 1016mb 80f 79f
9:50am 5.5ft 9s 6s 20 25 mph 1015.5mb 80f 78f
8:50am 5.5ft 9s 6s 20 25 mph 1015.1mb 80f 78f
7:50am 5.5ft 9s 6s 20 25 mph 1014.7mb 80f 78f
6:50am 5ft 10s 5s 18 20 mph 1014.7mb 80f 78f
5:50am 5ft 10s 5s 18 20 mph 1015.2mb 80f 78f
4:50am 5ft 10s 6s 16 20 mph 1015.9mb 80f 78f
3:50am 5ft 10s 6s 18 22 mph 1016.2mb 80f 78f
2:50am 4.5ft 10s 5s 18 22 mph 1016.1mb 80f 79f
1:50am 5ft 9s 6s 18 22 mph 1016.3mb 80f 79f
Sat 01/24 11:50pm 5ft 9s 6s 18 20 mph 1016.2mb 80f 79f
10:50pm 5.5ft 9s 6s 16 18 mph 1015.8mb 81f 79f
9:50pm 6ft 9s 6s 16 18 mph 1015.4mb 81f 79f
8:50pm 5ft 9s 6s 16 18 mph 1015.1mb 81f 79f
7:50pm 5ft 9s 6s 16 18 mph 1014.7mb 81f 79f
6:50pm 6ft 9s 6s 16 20 mph 1014.7mb 81f 79f
5:50pm 6ft 9s 6s 16 18 mph 1015mb 81f 78f
4:50pm 6ft 9s 6s 16 20 mph 1015.6mb 81f 79f
3:50pm 6ft 9s 6s 16 20 mph 1016.6mb 81f 78f
2:50pm 6ft 9s 6s 20 22 mph 1017.2mb 80f 78f
1:50pm 6ft 8s 6s 18 20 mph 1017.3mb 80f 79f
12:50pm 5.5ft 9s 6s 18 20 mph 1017.1mb 80f 79f
11:50am 5.5ft 9s 6s 18 22 mph 1016.3mb 80f 78f
10:50am 5.5ft 8s 6s 18 22 mph 1015.6mb 80f 78f